createdAt,value
2018-08-18T00:01:32.379Z,15.53
2018-08-18T00:04:05.819Z,13.23
2018-08-18T00:06:34.030Z,16.13
2018-08-18T00:09:02.295Z,12.83
2018-08-18T00:11:30.483Z,13.87
2018-08-18T00:13:58.699Z,16.00
2018-08-18T00:16:28.177Z,15.83
2018-08-18T00:18:59.120Z,12.27
2018-08-18T00:21:29.066Z,16.63
2018-08-18T00:24:06.647Z,17.73
2018-08-18T00:26:34.863Z,16.23
2018-08-18T00:29:03.530Z,16.60
2018-08-18T00:31:31.743Z,16.70
2018-08-18T00:33:59.977Z,17.20
2018-08-18T00:36:28.168Z,18.27
2018-08-18T00:38:58.392Z,16.33
2018-08-18T00:41:28.136Z,17.50
2018-08-18T00:43:57.176Z,15.20
2018-08-18T00:46:28.108Z,18.00
2018-08-18T00:48:56.424Z,17.00
2018-08-18T00:51:30.108Z,17.50
2018-08-18T00:53:58.356Z,16.43
2018-08-18T00:56:27.152Z,17.43
2018-08-18T00:58:56.468Z,17.10
2018-08-18T01:01:24.728Z,15.53
2018-08-18T01:03:58.212Z,16.10
2018-08-18T01:06:31.579Z,16.93
2018-08-18T01:09:00.983Z,17.07
2018-08-18T01:11:29.578Z,17.37
2018-08-18T01:14:01.801Z,15.17
2018-08-18T01:16:30.155Z,17.83
2018-08-18T01:18:58.745Z,16.63
2018-08-18T01:21:27.192Z,16.07
2018-08-18T01:23:55.356Z,16.63
2018-08-18T01:26:24.534Z,15.20
2018-08-18T01:28:53.376Z,15.50
2018-08-18T01:31:24.307Z,15.30
2018-08-18T01:33:53.162Z,16.30
2018-08-18T01:36:21.372Z,16.97
2018-08-18T01:38:49.847Z,15.40
2018-08-18T01:41:23.524Z,14.73
2018-08-18T01:44:24.952Z,15.20
2018-08-18T01:46:53.910Z,15.47
2018-08-18T01:49:41.508Z,15.97
2018-08-18T01:52:15.845Z,15.23
2018-08-18T01:54:45.963Z,15.07
2018-08-18T01:57:15.035Z,18.43
2018-08-18T01:59:44.416Z,16.87
2018-08-18T02:02:14.880Z,20.33
2018-08-18T02:04:43.664Z,17.13
2018-08-18T02:07:20.599Z,18.17
2018-08-18T02:09:48.899Z,14.73
2018-08-18T02:12:17.136Z,15.30
2018-08-18T02:14:45.360Z,17.77
2018-08-18T02:17:20.195Z,17.90
2018-08-18T02:19:48.677Z,18.73
2018-08-18T02:22:16.867Z,18.03
2018-08-18T02:24:45.379Z,15.50
2018-08-18T02:27:13.861Z,18.17
2018-08-18T02:29:42.100Z,18.03
2018-08-18T02:32:26.720Z,22.17
2018-08-18T02:34:55.380Z,17.70
2018-08-18T02:37:23.644Z,19.07
2018-08-18T02:39:51.865Z,19.43
2018-08-18T02:42:20.116Z,17.50
2018-08-18T02:44:48.312Z,20.77
2018-08-18T02:47:16.616Z,19.70
2018-08-18T02:49:47.800Z,20.20
2018-08-18T02:52:21.404Z,17.20
2018-08-18T02:54:58.080Z,19.50
2018-08-18T02:57:34.383Z,19.50
2018-08-18T03:00:03.768Z,20.20
2018-08-18T03:02:32.696Z,19.23
2018-08-18T03:05:00.948Z,20.23
2018-08-18T03:07:44.895Z,21.37
2018-08-18T03:10:18.388Z,20.87
2018-08-18T03:12:46.934Z,20.33
2018-08-18T03:15:31.530Z,20.30
2018-08-18T03:17:59.796Z,21.97
2018-08-18T03:20:28.012Z,24.03
2018-08-18T03:22:56.309Z,25.07
2018-08-18T03:25:36.972Z,19.17
2018-08-18T03:28:06.236Z,20.00
2018-08-18T03:30:34.473Z,22.70
2018-08-18T03:33:03.276Z,22.30
2018-08-18T03:35:31.482Z,20.17
2018-08-18T03:37:59.709Z,25.10
2018-08-18T03:40:27.951Z,23.57
2018-08-18T03:42:56.160Z,22.60
2018-08-18T03:45:24.430Z,26.50
2018-08-18T03:47:52.628Z,24.83
2018-08-18T03:50:20.879Z,28.20
2018-08-18T03:52:49.557Z,29.53
2018-08-18T03:55:20.521Z,25.43
2018-08-18T03:57:48.712Z,26.47
2018-08-18T04:00:18.048Z,26.30
2018-08-18T04:02:46.228Z,25.63
2018-08-18T04:05:14.433Z,27.40
2018-08-18T04:07:47.523Z,28.30
2018-08-18T04:10:15.797Z,26.13
2018-08-18T04:12:44.024Z,27.17
2018-08-18T04:15:12.231Z,27.07
2018-08-18T04:17:40.443Z,29.23
2018-08-18T04:20:08.676Z,30.47
2018-08-18T04:22:36.891Z,28.70
2018-08-18T04:25:05.709Z,28.07
2018-08-18T04:27:45.372Z,28.13
2018-08-18T04:30:17.234Z,27.17
2018-08-18T04:33:01.164Z,26.87
2018-08-18T04:35:30.788Z,26.13
2018-08-18T04:38:00.595Z,26.10
2018-08-18T04:40:28.840Z,25.93
2018-08-18T04:42:58.202Z,28.63
2018-08-18T04:45:26.592Z,26.00
2018-08-18T04:47:54.816Z,28.33
2018-08-18T04:50:23.739Z,29.57
2018-08-18T04:52:52.475Z,26.07
2018-08-18T04:55:20.779Z,28.53
2018-08-18T04:57:49.158Z,26.90
2018-08-18T05:00:17.339Z,29.10
2018-08-18T05:03:03.312Z,29.17
2018-08-18T05:05:33.099Z,30.10
2018-08-18T05:08:01.922Z,26.80
2018-08-18T05:10:30.776Z,26.90
2018-08-18T05:12:58.979Z,29.00
2018-08-18T05:15:27.339Z,26.87
2018-08-18T05:17:55.548Z,28.33
2018-08-18T05:20:25.658Z,25.90
2018-08-18T05:22:53.864Z,31.27
2018-08-18T05:25:27.240Z,29.10
2018-08-18T05:27:55.645Z,30.90
2018-08-18T05:30:24.108Z,30.30
2018-08-18T05:32:52.466Z,27.63
2018-08-18T05:35:20.679Z,26.80
2018-08-18T05:37:50.033Z,27.67
2018-08-18T05:40:18.227Z,28.97
2018-08-18T05:42:46.628Z,28.00
2018-08-18T05:45:24.524Z,26.43
2018-08-18T05:47:53.658Z,26.93
2018-08-18T05:50:23.705Z,28.57
2018-08-18T05:52:54.500Z,26.13
2018-08-18T05:55:22.917Z,27.83
2018-08-18T05:57:51.160Z,23.13
2018-08-18T06:00:21.178Z,28.10
2018-08-18T06:02:54.840Z,24.43
2018-08-18T06:05:23.093Z,26.03
2018-08-18T06:07:51.344Z,25.10
2018-08-18T06:10:19.633Z,22.83
2018-08-18T06:12:47.897Z,24.80
2018-08-18T06:15:16.142Z,23.10
2018-08-18T06:17:44.328Z,22.23
2018-08-18T06:20:12.579Z,21.40
2018-08-18T06:22:40.942Z,20.40
2018-08-18T06:25:09.604Z,22.57
2018-08-18T06:27:37.844Z,22.60
2018-08-18T06:30:06.412Z,21.33
2018-08-18T06:32:34.655Z,24.03
2018-08-18T06:35:02.909Z,21.93
2018-08-18T06:37:31.156Z,20.77
2018-08-18T06:39:59.881Z,21.80
2018-08-18T06:42:38.767Z,24.77
2018-08-18T06:45:10.800Z,24.50
2018-08-18T06:47:39.288Z,22.50
2018-08-18T06:50:09.612Z,21.63
2018-08-18T06:52:37.836Z,22.73
2018-08-18T06:55:06.854Z,23.10
2018-08-18T06:57:44.391Z,24.80
2018-08-18T07:00:15.582Z,22.80
2018-08-18T07:02:43.800Z,21.57
2018-08-18T07:05:13.265Z,20.17
2018-08-18T07:07:41.785Z,21.37
2018-08-18T07:10:25.588Z,20.20
2018-08-18T07:12:56.340Z,23.57
2018-08-18T07:15:26.193Z,22.67
2018-08-18T07:17:54.505Z,21.80
2018-08-18T07:20:23.136Z,21.17
2018-08-18T07:22:51.946Z,21.47
2018-08-18T07:25:20.287Z,24.00
2018-08-18T07:27:54.328Z,20.00
2018-08-18T07:30:23.081Z,23.87
2018-08-18T07:32:51.329Z,18.80
2018-08-18T07:35:19.580Z,19.93
2018-08-18T07:37:47.837Z,20.97
2018-08-18T07:40:16.068Z,21.23
2018-08-18T07:42:49.105Z,20.93
2018-08-18T07:45:17.565Z,18.03
2018-08-18T07:47:45.785Z,23.03
2018-08-18T07:50:14.049Z,18.73
2018-08-18T07:52:42.406Z,20.90
2018-08-18T07:55:10.628Z,20.43
2018-08-18T07:57:43.108Z,22.33
2018-08-18T08:00:11.334Z,20.47
2018-08-18T08:02:39.545Z,23.63
2018-08-18T08:05:07.882Z,22.13
2018-08-18T08:07:36.000Z,19.07
2018-08-18T08:10:04.699Z,20.90
2018-08-18T08:12:32.826Z,21.67
2018-08-18T08:15:00.964Z,17.73
2018-08-18T08:17:30.231Z,21.73
2018-08-18T08:19:58.488Z,19.13
2018-08-18T08:22:26.712Z,16.80
2018-08-18T08:24:55.183Z,17.43
2018-08-18T08:27:23.468Z,17.53
2018-08-18T08:29:51.750Z,16.87
2018-08-18T08:32:19.979Z,19.10
2018-08-18T08:34:48.190Z,15.40
2018-08-18T08:37:17.132Z,19.33
2018-08-18T08:39:46.254Z,16.07
2018-08-18T08:42:14.519Z,16.17
2018-08-18T08:44:43.480Z,17.50
2018-08-18T08:47:13.968Z,15.73
2018-08-18T08:49:42.606Z,19.07
2018-08-18T08:52:11.230Z,15.30
2018-08-18T08:54:40.339Z,15.27
2018-08-18T08:57:10.796Z,15.57
2018-08-18T08:59:40.372Z,14.63
2018-08-18T09:02:10.133Z,14.60
2018-08-18T09:04:38.393Z,12.13
2018-08-18T09:07:07.941Z,14.80
2018-08-18T09:09:36.207Z,15.13
2018-08-18T09:12:04.581Z,14.17
2018-08-18T09:14:32.820Z,13.80
2018-08-18T09:17:01.076Z,14.07
2018-08-18T09:19:29.748Z,14.77
2018-08-18T09:22:01.303Z,13.63
2018-08-18T09:24:30.840Z,12.53
2018-08-18T09:27:00.403Z,13.87
2018-08-18T09:29:48.275Z,14.73
2018-08-18T09:32:17.679Z,12.60
2018-08-18T09:34:51.275Z,13.00
2018-08-18T09:37:19.732Z,11.87
2018-08-18T09:39:47.964Z,13.20
2018-08-18T09:42:17.223Z,13.37
2018-08-18T09:44:49.286Z,13.47
2018-08-18T09:47:17.523Z,12.20
2018-08-18T09:49:45.798Z,10.83
2018-08-18T09:52:15.540Z,11.87
2018-08-18T09:54:43.793Z,10.50
2018-08-18T09:57:12.664Z,10.27
2018-08-18T09:59:40.921Z,10.20
2018-08-18T10:02:11.485Z,13.67
2018-08-18T10:04:39.760Z,12.27
2018-08-18T10:07:08.088Z,9.47
2018-08-18T10:09:36.284Z,10.43
2018-08-18T10:12:04.763Z,13.97
2018-08-18T10:14:32.977Z,11.13
2018-08-18T10:17:01.359Z,9.97
2018-08-18T10:19:31.327Z,11.37
2018-08-18T10:22:00.241Z,11.60
2018-08-18T10:24:28.491Z,10.67
2018-08-18T10:27:02.235Z,9.50
2018-08-18T10:29:30.428Z,9.13
2018-08-18T10:31:59.166Z,10.57
2018-08-18T10:34:29.002Z,11.03
2018-08-18T10:37:01.348Z,8.27
2018-08-18T10:39:29.784Z,11.17
2018-08-18T10:42:17.000Z,10.10
2018-08-18T10:44:51.669Z,11.47
2018-08-18T10:47:21.159Z,8.80
2018-08-18T10:50:01.144Z,8.30
2018-08-18T10:52:41.282Z,7.87
2018-08-18T10:55:10.941Z,8.20
2018-08-18T10:57:51.357Z,8.77
2018-08-18T11:00:20.984Z,7.93
2018-08-18T11:02:51.400Z,10.13
2018-08-18T11:05:20.136Z,8.67
2018-08-18T11:07:55.171Z,8.60
2018-08-18T11:10:24.787Z,7.30
2018-08-18T11:12:53.055Z,7.73
2018-08-18T11:15:21.341Z,8.40
2018-08-18T11:17:49.587Z,8.07
2018-08-18T11:20:18.656Z,9.37
2018-08-18T11:23:09.176Z,10.23
2018-08-18T11:25:42.463Z,8.87
2018-08-18T11:28:11.439Z,10.50
2018-08-18T11:30:39.805Z,7.03
2018-08-18T11:33:08.100Z,7.97
2018-08-18T11:35:36.633Z,10.93
2018-08-18T11:38:07.090Z,7.27
2018-08-18T11:40:35.352Z,8.23
2018-08-18T11:43:04.596Z,7.47
2018-08-18T11:45:34.119Z,8.63
2018-08-18T11:48:20.100Z,8.70
2018-08-18T11:50:49.021Z,7.23
2018-08-18T11:53:17.538Z,8.83
2018-08-18T11:55:45.785Z,6.50
2018-08-18T11:58:16.983Z,7.57
2018-08-18T12:00:46.616Z,6.87
2018-08-18T12:03:15.879Z,6.87
2018-08-18T12:05:46.651Z,6.73
2018-08-18T12:08:15.977Z,7.37
2018-08-18T12:10:44.295Z,5.57
2018-08-18T12:13:12.576Z,6.50
2018-08-18T12:15:56.282Z,7.40
2018-08-18T12:18:27.372Z,8.30
2018-08-18T12:20:58.016Z,7.00
2018-08-18T12:23:26.872Z,5.83
2018-08-18T12:26:02.627Z,6.67
2018-08-18T12:28:36.168Z,6.60
2018-08-18T12:31:06.620Z,7.50
2018-08-18T12:33:34.871Z,5.23
2018-08-18T12:36:03.248Z,6.40
2018-08-18T12:38:32.075Z,6.70
2018-08-18T12:41:00.556Z,6.50
2018-08-18T12:43:35.855Z,6.60
2018-08-18T12:46:05.593Z,7.10
2018-08-18T12:48:35.157Z,6.03
2018-08-18T12:51:04.198Z,5.83
2018-08-18T12:53:36.915Z,5.17
2018-08-18T12:56:05.256Z,6.43
2018-08-18T12:58:33.612Z,5.10
2018-08-18T13:01:01.947Z,5.37
2018-08-18T13:03:30.273Z,8.87
2018-08-18T13:05:58.468Z,4.83
2018-08-18T13:08:26.720Z,5.60
2018-08-18T13:10:55.423Z,5.00
2018-08-18T13:13:24.008Z,4.73
2018-08-18T13:15:53.628Z,4.77
2018-08-18T13:18:22.095Z,3.90
2018-08-18T13:20:51.519Z,5.00
2018-08-18T13:23:21.169Z,4.90
2018-08-18T13:25:49.648Z,5.17
2018-08-18T13:28:17.876Z,4.70
2018-08-18T13:30:46.116Z,4.23
2018-08-18T13:33:14.426Z,6.03
2018-08-18T13:35:42.616Z,4.40
2018-08-18T13:38:42.972Z,4.53
2018-08-18T13:41:11.220Z,4.40
2018-08-18T13:43:42.513Z,4.93
2018-08-18T13:46:13.236Z,5.97
2018-08-18T13:48:53.099Z,4.63
2018-08-18T13:51:22.567Z,6.63
2018-08-18T13:53:52.839Z,4.33
2018-08-18T13:56:22.496Z,3.73
2018-08-18T13:58:51.828Z,4.03
2018-08-18T14:01:37.189Z,5.77
2018-08-18T14:04:06.080Z,3.77
2018-08-18T14:06:54.760Z,4.37
2018-08-18T14:09:23.024Z,6.80
2018-08-18T14:11:54.735Z,4.20
2018-08-18T14:14:23.102Z,5.77
2018-08-18T14:16:51.331Z,4.00
2018-08-18T14:19:21.329Z,5.03
2018-08-18T14:21:53.848Z,5.83
2018-08-18T14:24:26.687Z,4.53
2018-08-18T14:27:01.200Z,4.53
2018-08-18T14:29:31.415Z,3.93
2018-08-18T14:32:00.272Z,4.37
2018-08-18T14:34:28.546Z,4.87
2018-08-18T14:37:02.612Z,5.37
2018-08-18T14:39:38.936Z,5.50
2018-08-18T14:42:08.296Z,30.63
2018-08-18T14:44:36.966Z,4.40
2018-08-18T14:47:05.404Z,4.63
2018-08-18T14:49:33.781Z,5.80
2018-08-18T14:52:02.328Z,5.03
2018-08-18T14:54:31.543Z,5.00
2018-08-18T14:57:01.440Z,5.17
2018-08-18T14:59:33.827Z,4.63
2018-08-18T15:02:03.911Z,4.97
2018-08-18T15:04:32.456Z,4.70
2018-08-18T15:07:00.685Z,5.03
2018-08-18T15:09:38.097Z,4.20
2018-08-18T15:12:06.740Z,3.87
2018-08-18T15:14:35.090Z,4.75
2018-08-18T15:17:03.295Z,5.15
2018-08-18T15:19:31.697Z,5.37
2018-08-18T15:22:01.183Z,6.53
2018-08-18T15:24:29.696Z,12.90
2018-08-18T15:26:57.933Z,6.35
2018-08-18T15:29:26.140Z,5.42
2018-08-18T15:31:56.456Z,4.37
2018-08-18T15:34:25.072Z,6.42
2018-08-18T15:36:53.292Z,5.62
2018-08-18T15:39:24.234Z,5.25
2018-08-18T15:41:54.001Z,4.80
2018-08-18T15:44:23.078Z,5.08
2018-08-18T15:46:51.345Z,4.40
2018-08-18T15:49:19.556Z,4.72
2018-08-18T15:51:47.782Z,4.25
2018-08-18T15:54:16.045Z,4.75
2018-08-18T15:56:44.311Z,4.17
2018-08-18T15:59:13.239Z,6.90
2018-08-18T16:01:41.567Z,6.75
2018-08-18T16:04:09.780Z,8.10
2018-08-18T16:06:38.107Z,4.70
2018-08-18T16:09:07.974Z,4.92
2018-08-18T16:11:36.176Z,5.30
2018-08-18T16:14:04.430Z,4.27
2018-08-18T16:16:37.176Z,5.67
2018-08-18T16:19:10.697Z,4.92
2018-08-18T16:21:38.937Z,4.75
2018-08-18T16:24:07.503Z,4.58
2018-08-18T16:26:35.733Z,5.28
2018-08-18T16:29:03.939Z,5.10
2018-08-18T16:31:32.144Z,16.50
2018-08-18T16:34:00.422Z,4.80
2018-08-18T16:36:32.854Z,6.77
2018-08-18T16:39:01.119Z,5.17
2018-08-18T16:41:29.320Z,5.97
2018-08-18T16:43:58.084Z,5.57
2018-08-18T16:46:31.163Z,5.40
2018-08-18T16:48:59.416Z,5.43
2018-08-18T16:51:27.840Z,6.63
2018-08-18T16:54:00.876Z,6.00
2018-08-18T16:56:30.618Z,6.07
2018-08-18T16:59:00.148Z,5.30
2018-08-18T17:01:28.343Z,6.10
2018-08-18T17:03:56.768Z,7.27
2018-08-18T17:06:25.361Z,5.57
2018-08-18T17:08:53.989Z,7.30
2018-08-18T17:11:22.258Z,6.30
2018-08-18T17:13:50.621Z,5.80
2018-08-18T17:16:20.825Z,5.07
2018-08-18T17:18:49.216Z,5.37
2018-08-18T17:21:17.643Z,5.73
2018-08-18T17:23:46.064Z,6.53
2018-08-18T17:26:14.266Z,6.07
2018-08-18T17:28:42.532Z,6.43
2018-08-18T17:31:10.806Z,5.97
2018-08-18T17:33:39.097Z,6.43
2018-08-18T17:36:07.483Z,5.50
2018-08-18T17:38:35.675Z,6.47
2018-08-18T17:41:03.919Z,5.57
2018-08-18T17:43:32.168Z,6.83
2018-08-18T17:46:04.160Z,6.03
2018-08-18T17:48:38.848Z,5.70
2018-08-18T17:51:07.143Z,5.83
2018-08-18T17:53:35.669Z,6.40
2018-08-18T17:56:04.911Z,6.33
2018-08-18T17:58:33.115Z,6.30
2018-08-18T18:01:01.834Z,5.90
2018-08-18T18:03:30.044Z,6.13
2018-08-18T18:05:58.321Z,6.57
2018-08-18T18:08:26.622Z,6.77
2018-08-18T18:10:54.884Z,6.30
2018-08-18T18:13:25.992Z,6.27
2018-08-18T18:15:54.275Z,6.60
2018-08-18T18:18:23.548Z,7.53
2018-08-18T18:20:53.960Z,6.33
2018-08-18T18:23:22.680Z,6.97
2018-08-18T18:25:50.939Z,6.23
2018-08-18T18:28:19.187Z,8.37
2018-08-18T18:30:50.288Z,8.53
2018-08-18T18:33:18.544Z,8.80
2018-08-18T18:35:48.447Z,10.13
2018-08-18T18:38:17.460Z,8.23
2018-08-18T18:40:46.065Z,7.37
2018-08-18T18:43:14.289Z,7.50
2018-08-18T18:45:42.583Z,9.00
2018-08-18T18:48:12.720Z,7.33
2018-08-18T18:50:41.821Z,8.47
2018-08-18T18:53:10.136Z,7.90
2018-08-18T18:55:53.283Z,8.03
2018-08-18T18:58:21.521Z,8.10
2018-08-18T19:01:08.719Z,7.97
2018-08-18T19:03:37.287Z,7.63
2018-08-18T19:06:05.521Z,8.87
2018-08-18T19:08:39.326Z,8.33
2018-08-18T19:11:07.543Z,8.83
2018-08-18T19:13:35.740Z,8.03
2018-08-18T19:16:04.022Z,8.33
2018-08-18T19:18:32.266Z,8.63
2018-08-18T19:21:00.503Z,9.23
2018-08-18T19:23:31.466Z,8.60
2018-08-18T19:25:59.688Z,8.90
2018-08-18T19:28:27.910Z,8.50
2018-08-18T19:30:56.136Z,8.73
2018-08-18T19:33:24.364Z,10.47
2018-08-18T19:35:53.273Z,10.27
2018-08-18T19:38:22.627Z,13.07
2018-08-18T19:40:52.819Z,8.53
2018-08-18T19:43:28.381Z,10.43
2018-08-18T19:45:57.060Z,8.83
2018-08-18T19:48:26.739Z,10.47
2018-08-18T19:51:00.463Z,8.03
2018-08-18T19:53:31.428Z,10.20
2018-08-18T19:56:00.530Z,11.37
2018-08-18T19:58:29.307Z,10.10
2018-08-18T20:00:57.528Z,9.00
2018-08-18T20:03:26.224Z,9.57
2018-08-18T20:05:54.524Z,11.07
2018-08-18T20:08:24.148Z,10.73
2018-08-18T20:10:58.577Z,8.13
2018-08-18T20:13:28.205Z,10.53
2018-08-18T20:15:57.892Z,10.60
2018-08-18T20:18:26.146Z,9.03
2018-08-18T20:20:56.480Z,9.43
2018-08-18T20:23:24.705Z,9.20
2018-08-18T20:25:52.944Z,8.80
2018-08-18T20:28:21.164Z,7.83
2018-08-18T20:30:49.519Z,8.27
2018-08-18T20:33:17.815Z,11.20
2018-08-18T20:35:46.012Z,10.17
2018-08-18T20:38:14.251Z,9.87
2018-08-18T20:40:42.471Z,8.17
2018-08-18T20:43:10.681Z,10.83
2018-08-18T20:45:44.458Z,8.83
2018-08-18T20:48:16.140Z,8.37
2018-08-18T20:50:44.337Z,10.33
2018-08-18T20:53:13.630Z,9.17
2018-08-18T20:55:43.615Z,10.13
2018-08-18T20:58:11.948Z,7.80
2018-08-18T21:00:40.207Z,8.63
2018-08-18T21:03:08.748Z,9.13
2018-08-18T21:05:37.028Z,9.70
2018-08-18T21:08:09.268Z,8.40
2018-08-18T21:10:37.697Z,7.77
2018-08-18T21:13:06.456Z,9.73
2018-08-18T21:15:34.681Z,9.43
2018-08-18T21:18:07.162Z,9.40
2018-08-18T21:20:35.398Z,10.60
2018-08-18T21:23:03.622Z,7.67
2018-08-18T21:25:44.059Z,7.90
2018-08-18T21:28:13.001Z,7.80
2018-08-18T21:30:41.256Z,8.93
2018-08-18T21:33:09.468Z,8.00
2018-08-18T21:35:38.267Z,8.07
2018-08-18T21:38:06.571Z,7.80
2018-08-18T21:40:34.792Z,9.07
2018-08-18T21:43:02.983Z,8.27
2018-08-18T21:45:36.769Z,8.20
2018-08-18T21:48:05.492Z,9.00
2018-08-18T21:50:33.683Z,8.93
2018-08-18T21:53:02.766Z,8.77
2018-08-18T21:55:30.935Z,9.03
2018-08-18T21:57:59.532Z,8.87
2018-08-18T22:00:33.074Z,7.10
2018-08-18T22:03:01.288Z,8.03
2018-08-18T22:05:31.952Z,8.80
2018-08-18T22:08:00.471Z,7.90
2018-08-18T22:10:28.679Z,8.97
2018-08-18T22:12:57.269Z,8.87
2018-08-18T22:15:25.464Z,7.63
2018-08-18T22:17:53.737Z,9.20
2018-08-18T22:20:22.935Z,8.23
2018-08-18T22:22:51.232Z,8.43
2018-08-18T22:25:19.356Z,9.00
2018-08-18T22:27:52.430Z,9.27
2018-08-18T22:30:24.488Z,9.63
2018-08-18T22:32:52.700Z,7.80
2018-08-18T22:35:20.968Z,8.07
2018-08-18T22:37:49.219Z,8.80
2018-08-18T22:40:17.421Z,9.57
2018-08-18T22:42:45.644Z,7.87
2018-08-18T22:45:26.110Z,7.27
2018-08-18T22:47:54.342Z,7.50
2018-08-18T22:50:22.559Z,6.83
2018-08-18T22:52:51.911Z,9.27
2018-08-18T22:55:20.174Z,6.53
2018-08-18T22:58:03.832Z,7.17
2018-08-18T23:00:36.803Z,9.83
2018-08-18T23:03:05.080Z,7.87
2018-08-18T23:05:33.284Z,6.60
2018-08-18T23:08:01.524Z,8.97
2018-08-18T23:10:30.896Z,8.87
2018-08-18T23:12:59.700Z,6.17
2018-08-18T23:15:28.013Z,10.27
2018-08-18T23:17:56.310Z,7.00
2018-08-18T23:20:24.586Z,6.47
2018-08-18T23:22:57.748Z,6.77
2018-08-18T23:25:30.198Z,8.67
2018-08-18T23:27:58.652Z,7.80
2018-08-18T23:30:42.521Z,7.10
2018-08-18T23:33:10.920Z,6.80
2018-08-18T23:35:39.111Z,8.30
2018-08-18T23:38:07.358Z,7.00
2018-08-18T23:40:35.551Z,7.13
2018-08-18T23:43:04.020Z,7.47
2018-08-18T23:45:38.763Z,7.57
2018-08-18T23:48:09.252Z,6.60
2018-08-18T23:50:38.684Z,7.23
2018-08-18T23:53:10.953Z,7.77
2018-08-18T23:55:54.976Z,9.53
2018-08-18T23:58:23.260Z,13.10
